Time;durP1;ratioP1;P1;durP2;ratioP2;P2;SDS_P1;SDS_P2;PMS_P1;PMS_P2;Temp;Humidity;BMP_temperature;BMP_pressure;BME280_temperature;BME280_humidity;BME280_pressure;Samples;Min_cycle;Max_cycle;Signal;HPM_P1;HPM_P2
2024/02/12 00:00:43;;;;;;;658.45;288.65;;;;;;;21.91;39.44;99625.06;5024985;28;20038;-88
2024/02/12 00:03:09;;;;;;;671.42;294.90;;;;;;;21.83;39.69;99609.44;5008891;28;20083;-88
2024/02/12 00:05:36;;;;;;;685.90;299.08;;;;;;;21.89;39.87;99621.00;5003626;28;20127;-87
2024/02/12 00:08:07;;;;;;;672.45;294.00;;;;;;;21.90;39.68;99627.91;5017787;28;20029;-88
2024/02/12 00:10:34;;;;;;;663.40;290.92;;;;;;;21.89;39.57;99628.94;5024897;28;20266;-87
2024/02/12 00:12:59;;;;;;;662.25;290.80;;;;;;;21.82;39.63;99629.03;5024885;28;20639;-88
2024/02/12 00:15:27;;;;;;;656.50;289.58;;;;;;;21.80;39.78;99633.75;5024502;28;20133;-87
2024/02/12 00:17:53;;;;;;;643.75;283.55;;;;;;;21.86;39.25;99646.09;5014657;28;20053;-89
2024/02/12 00:20:18;;;;;;;652.42;287.45;;;;;;;21.82;39.56;99642.28;5026250;28;20493;-89
2024/02/12 00:22:44;;;;;;;646.38;284.38;;;;;;;21.76;39.75;99637.88;5015451;28;20040;-89
2024/02/12 00:25:14;;;;;;;637.30;281.00;;;;;;;21.76;39.64;99635.22;5008967;28;20041;-88
2024/02/12 00:27:40;;;;;;;651.53;287.40;;;;;;;21.71;39.68;99641.16;5023819;28;20045;-86
2024/02/12 00:30:08;;;;;;;658.08;289.17;;;;;;;21.78;39.86;99651.72;5022354;28;20355;-86
2024/02/12 00:32:36;;;;;;;655.30;288.58;;;;;;;21.73;39.59;99646.28;5016099;28;20042;-87
2024/02/12 00:35:02;;;;;;;656.08;288.45;;;;;;;21.64;39.62;99647.56;5019152;28;20065;-86
2024/02/12 00:37:29;;;;;;;658.05;289.67;;;;;;;21.64;39.71;99639.63;5021881;28;20037;-87
2024/02/12 00:39:55;;;;;;;662.85;292.52;;;;;;;21.69;39.79;99656.47;5021469;28;20038;-86
2024/02/12 00:42:23;;;;;;;652.30;287.92;;;;;;;21.70;39.66;99663.38;5027135;28;20825;-87
2024/02/12 00:44:49;;;;;;;660.30;291.00;;;;;;;21.69;39.62;99666.25;5022195;28;20029;-86
2024/02/12 00:47:15;;;;;;;651.78;287.58;;;;;;;21.63;39.73;99656.56;5023694;28;20519;-89
2024/02/12 00:49:43;;;;;;;652.35;287.48;;;;;;;21.64;39.72;99658.97;5018367;28;20117;-90
2024/02/12 00:52:12;;;;;;;648.55;285.38;;;;;;;21.65;39.75;99655.28;5007190;28;20049;-89
2024/02/12 00:54:41;;;;;;;642.65;284.02;;;;;;;21.68;39.79;99662.00;5024984;28;20465;-91
2024/02/12 00:57:07;;;;;;;660.22;289.90;;;;;;;21.65;39.59;99663.25;5030344;28;20112;-88
2024/02/12 00:59:38;;;;;;;661.10;290.95;;;;;;;21.62;39.78;99660.22;5018312;28;20061;-88
2024/02/12 01:02:11;;;;;;;710.72;309.52;;;;;;;21.63;39.80;99661.84;5023168;28;20045;-91
2024/02/12 01:04:36;;;;;;;726.70;315.55;;;;;;;21.53;39.66;99662.34;5025575;28;20045;-89
2024/02/12 01:07:03;;;;;;;703.90;306.35;;;;;;;21.53;39.86;99661.53;5009377;28;20064;-90
2024/02/12 01:09:29;;;;;;;694.30;303.13;;;;;;;21.49;39.67;99663.00;5024043;28;20072;-88
2024/02/12 01:11:55;;;;;;;684.13;298.58;;;;;;;21.52;39.84;99666.00;5021116;28;20639;-89
2024/02/12 01:14:23;;;;;;;696.15;304.42;;;;;;;21.47;39.70;99662.41;5023212;28;20096;-89
2024/02/12 01:16:49;;;;;;;705.05;307.85;;;;;;;21.48;39.52;99671.97;5026111;28;20140;-89
2024/02/12 01:19:15;;;;;;;710.63;310.83;;;;;;;21.38;39.56;99652.13;5007729;28;20049;-90
2024/02/12 01:21:41;;;;;;;718.55;314.35;;;;;;;21.54;39.87;99684.34;5028425;28;20049;-89
2024/02/12 01:24:06;;;;;;;717.13;316.02;;;;;;;21.53;39.94;99680.06;5021509;28;20033;-88
2024/02/12 01:26:34;;;;;;;726.33;319.70;;;;;;;21.53;39.51;99686.19;5023589;28;20056;-88
2024/02/12 01:29:01;;;;;;;727.53;319.17;;;;;;;21.49;39.81;99690.31;5026217;28;20059;-89
2024/02/12 01:31:28;;;;;;;732.58;321.92;;;;;;;21.45;39.58;99697.06;4991974;28;20414;-88
2024/02/12 01:33:53;;;;;;;736.50;323.65;;;;;;;21.41;39.81;99696.69;5023667;28;20103;-88
2024/02/12 01:36:19;;;;;;;745.72;327.08;;;;;;;21.47;39.82;99702.94;5027443;28;20045;-89
2024/02/12 01:38:44;;;;;;;746.25;327.27;;;;;;;21.46;39.65;99708.47;5020911;28;20033;-89
2024/02/12 01:41:11;;;;;;;747.78;327.52;;;;;;;21.46;39.71;99703.16;5024112;28;20045;-89
2024/02/12 01:43:38;;;;;;;743.00;323.20;;;;;;;21.44;39.94;99705.22;5022591;28;20026;-90
2024/02/12 01:46:06;;;;;;;762.25;328.45;;;;;;;21.38;39.74;99702.44;5021822;28;20469;-90
2024/02/12 01:48:35;;;;;;;772.90;332.38;;;;;;;21.42;39.75;99708.91;5020165;28;20041;-89
2024/02/12 01:51:11;;;;;;;756.28;325.67;;;;;;;21.34;39.89;99695.91;5020155;28;20048;-89
2024/02/12 01:53:38;;;;;;;739.65;320.45;;;;;;;21.32;39.87;99695.34;5018317;28;20045;-90
2024/02/12 01:56:08;;;;;;;740.17;320.83;;;;;;;21.40;39.59;99710.97;5020068;28;20041;-89
2024/02/12 01:58:37;;;;;;;734.72;318.55;;;;;;;21.39;39.75;99712.00;5017628;28;20033;-89
2024/02/12 02:01:02;;;;;;;760.60;328.27;;;;;;;21.32;39.88;99700.63;5022568;28;20734;-89
2024/02/12 02:03:30;;;;;;;846.38;357.35;;;;;;;21.30;39.72;99693.94;5002576;28;20042;-88
2024/02/12 02:05:55;;;;;;;833.05;352.45;;;;;;;21.31;39.94;99706.94;5013942;28;20045;-89
2024/02/12 02:08:38;;;;;;;742.83;321.10;;;;;;;21.32;39.64;99721.00;5020683;28;21182;-90
2024/02/12 02:11:08;;;;;;;726.53;314.48;;;;;;;21.28;39.64;99720.63;5023699;28;20127;-89
2024/02/12 02:13:38;;;;;;;719.05;312.50;;;;;;;21.34;39.90;99727.69;5021220;28;20053;-89
2024/02/12 02:16:04;;;;;;;;;;;;;;;21.34;39.89;99738.28;5022201;28;20231;-89
2024/02/12 02:18:31;;;;;;;730.58;316.38;;;;;;;21.29;39.95;99729.38;5022289;28;19975;-87
2024/02/12 02:20:57;;;;;;;725.25;314.67;;;;;;;21.28;39.79;99731.22;5019228;28;20033;-89
2024/02/12 02:23:25;;;;;;;721.35;314.52;;;;;;;21.30;39.84;99731.81;5026252;28;20394;-89
2024/02/12 02:25:51;;;;;;;712.92;310.35;;;;;;;21.28;39.76;99741.00;5019419;28;20049;-89
2024/02/12 02:28:20;;;;;;;711.60;309.73;;;;;;;21.28;39.82;99741.00;5021378;28;20084;-90
2024/02/12 02:30:48;;;;;;;706.13;307.73;;;;;;;21.20;39.84;99738.59;5019420;28;20118;-89
2024/02/12 02:33:17;;;;;;;710.28;309.58;;;;;;;21.28;39.81;99747.09;5017494;28;20068;-89
2024/02/12 02:35:44;;;;;;;709.58;309.77;;;;;;;21.21;39.58;99735.72;5021857;28;20033;-89
2024/02/12 02:38:13;;;;;;;716.03;311.65;;;;;;;21.26;39.63;99746.50;5040920;28;20049;-88
2024/02/12 02:40:39;;;;;;;722.97;314.08;;;;;;;21.18;39.64;99738.78;5021477;28;20374;-89
2024/02/12 02:43:08;;;;;;;718.17;312.88;;;;;;;21.23;39.70;99746.91;5018722;28;20033;-88
2024/02/12 02:45:34;;;;;;;708.25;308.42;;;;;;;21.16;39.87;99738.19;5026452;28;20048;-88
2024/02/12 02:48:01;;;;;;;706.22;308.25;;;;;;;21.23;39.90;99751.41;5019903;28;20045;-88
2024/02/12 02:50:29;;;;;;;710.20;309.75;;;;;;;21.20;39.64;99757.13;5016898;28;20111;-87
2024/02/12 02:52:56;;;;;;;695.47;304.20;;;;;;;21.20;39.87;99759.78;5021989;28;20046;-88
2024/02/12 02:55:22;;;;;;;689.50;302.80;;;;;;;21.17;39.90;99762.81;5018526;28;20040;-88
2024/02/12 02:57:48;;;;;;;683.97;300.73;;;;;;;21.20;39.90;99757.13;5021025;28;20065;-89
2024/02/12 03:00:15;;;;;;;679.50;298.85;;;;;;;21.13;39.74;99757.16;5025598;28;20079;-89
2024/02/12 03:02:44;;;;;;;677.10;297.75;;;;;;;21.17;39.70;99753.06;5001791;28;20049;-89
2024/02/12 03:05:14;;;;;;;666.85;293.73;;;;;;;21.16;39.74;99758.56;5021072;28;20056;-89
2024/02/12 03:07:45;;;;;;;668.83;294.83;;;;;;;21.11;39.74;99752.06;5021916;28;20032;-89
2024/02/12 03:10:12;;;;;;;673.72;296.77;;;;;;;21.15;39.80;99756.94;5019331;28;20048;-88
2024/02/12 03:12:38;;;;;;;678.20;296.92;;;;;;;21.11;39.89;99759.22;4988182;28;20060;-88
2024/02/12 03:15:11;;;;;;;674.75;296.75;;;;;;;21.11;39.97;99762.66;5034034;28;20049;-89
2024/02/12 03:17:40;;;;;;;671.17;296.25;;;;;;;21.13;39.94;99780.97;5018894;28;20371;-88
2024/02/12 03:20:09;;;;;;;662.20;291.98;;;;;;;21.11;39.77;99767.16;5022122;28;20491;-89
2024/02/12 03:22:35;;;;;;;658.22;290.05;;;;;;;21.10;39.68;99774.28;5020917;28;20362;-90
2024/02/12 03:25:00;;;;;;;660.20;291.00;;;;;;;21.00;39.75;99767.81;5003985;28;20045;-89
2024/02/12 03:27:26;;;;;;;662.42;291.70;;;;;;;21.09;40.00;99779.78;5005018;28;20034;-89
2024/02/12 03:29:51;;;;;;;669.55;294.65;;;;;;;21.03;39.78;99778.00;4998787;28;20038;-88
2024/02/12 03:32:17;;;;;;;665.25;293.92;;;;;;;21.04;39.80;99785.72;5020875;28;20053;-90
2024/02/12 03:34:43;;;;;;;659.85;291.02;;;;;;;21.08;39.84;99797.50;5024723;28;20046;-90
2024/02/12 03:37:08;;;;;;;662.55;292.70;;;;;;;21.01;39.89;99790.66;5003791;28;20377;-89
2024/02/12 03:39:34;;;;;;;674.30;297.08;;;;;;;21.05;39.67;99805.88;5023161;28;20465;-90
2024/02/12 03:41:59;;;;;;;658.13;290.70;;;;;;;21.01;39.74;99798.59;5020058;28;20037;-91
2024/02/12 03:44:25;;;;;;;665.08;293.63;;;;;;;20.98;39.76;99788.41;5015322;28;20080;-90
2024/02/12 03:46:52;;;;;;;667.90;293.88;;;;;;;21.03;39.71;99807.13;5021443;28;20037;-90
2024/02/12 04:00:18;;;;;;;683.33;299.63;;;;;;;20.94;39.94;99811.84;5020251;28;20061;-88
2024/02/12 04:02:45;;;;;;;674.65;296.88;;;;;;;20.98;39.72;99820.97;5027828;28;20052;-90
2024/02/12 04:05:11;;;;;;;673.22;296.02;;;;;;;20.78;39.77;99788.50;5018400;28;20096;-89
2024/02/12 04:07:38;;;;;;;672.15;295.77;;;;;;;20.92;39.76;99815.72;5018075;28;20452;-89
2024/02/12 04:10:06;;;;;;;668.55;294.23;;;;;;;20.95;39.96;99821.41;5022364;28;20052;-88
2024/02/12 04:12:33;;;;;;;670.78;294.33;;;;;;;20.97;39.93;99827.28;5022179;28;20053;-91
2024/02/12 04:15:00;;;;;;;665.25;292.88;;;;;;;20.86;39.87;99813.91;5004214;28;20048;-90
2024/02/12 04:17:26;;;;;;;669.65;294.02;;;;;;;20.91;39.86;99824.69;5006215;28;20049;-91
2024/02/12 04:19:53;;;;;;;679.45;298.13;;;;;;;20.95;39.75;99836.47;4999245;28;20044;-91
2024/02/12 04:22:18;;;;;;;684.88;299.92;;;;;;;20.92;39.93;99834.25;5023786;28;20045;-90
2024/02/12 04:24:44;;;;;;;688.67;302.33;;;;;;;20.91;39.89;99836.06;4994788;28;20060;-92
2024/02/12 04:27:10;;;;;;;684.72;300.75;;;;;;;20.94;39.80;99845.41;5007230;28;22557;-90
2024/02/12 04:29:40;;;;;;;685.72;300.42;;;;;;;20.92;39.76;99845.63;5024878;28;20049;-89
2024/02/12 04:32:12;;;;;;;670.13;295.38;;;;;;;20.90;40.00;99850.34;5020407;28;20069;-90
2024/02/12 04:34:39;;;;;;;661.40;291.17;;;;;;;20.90;39.73;99846.88;5024137;28;20120;-90
2024/02/12 04:37:06;;;;;;;663.15;292.25;;;;;;;20.92;39.86;99853.56;5020780;28;20466;-91
2024/02/12 04:39:32;;;;;;;674.25;296.30;;;;;;;20.88;39.78;99847.09;5021300;28;20096;-90
2024/02/12 04:41:59;;;;;;;668.03;294.83;;;;;;;20.88;39.80;99854.22;5012095;28;20093;-90
2024/02/12 04:44:28;;;;;;;668.75;294.45;;;;;;;20.84;39.67;99853.00;5022135;28;20535;-90
2024/02/12 04:46:55;;;;;;;673.75;296.15;;;;;;;20.86;40.07;99862.38;5021812;28;20073;-90
2024/02/12 04:49:21;;;;;;;678.72;299.25;;;;;;;20.86;39.77;99864.19;5023155;28;20108;-90
2024/02/12 04:51:47;;;;;;;676.90;298.00;;;;;;;20.85;39.83;99862.56;5021620;28;20125;-91
2024/02/12 04:54:14;;;;;;;678.80;299.20;;;;;;;20.85;39.69;99862.56;5015457;28;20068;-92
2024/02/12 04:56:43;;;;;;;681.70;300.05;;;;;;;20.87;39.90;99861.34;5019062;28;20041;-92
2024/02/12 04:59:10;;;;;;;682.45;300.23;;;;;;;20.83;39.71;99859.34;5026522;28;20060;-91
2024/02/12 05:01:36;;;;;;;684.40;300.48;;;;;;;20.77;39.83;99850.38;5017054;28;20045;-90
2024/02/12 05:04:01;;;;;;;681.75;300.00;;;;;;;20.76;40.01;99854.84;5024861;28;20041;-90
2024/02/12 05:06:27;;;;;;;675.85;297.67;;;;;;;20.79;39.99;99843.03;5024728;28;20061;-90
2024/02/12 05:08:52;;;;;;;676.90;298.38;;;;;;;20.77;39.85;99867.06;5003555;28;20351;-90
2024/02/12 05:11:19;;;;;;;679.17;298.95;;;;;;;20.79;40.33;99865.00;5019691;28;20072;-90
2024/02/12 05:13:45;;;;;;;676.78;297.95;;;;;;;20.65;39.72;99862.66;5025656;28;20033;-91
2024/02/12 05:16:11;;;;;;;675.47;297.67;;;;;;;20.80;39.77;99879.88;5022500;28;20053;-91
2024/02/12 05:24:05;;;;;;;684.80;300.52;;;;;;;20.69;40.07;99863.84;5019725;28;20180;-89
2024/02/12 05:26:31;;;;;;;690.67;303.13;;;;;;;20.77;40.10;99871.53;5035669;28;20102;-90
2024/02/12 05:28:56;;;;;;;682.75;300.38;;;;;;;20.79;39.91;99880.88;5022004;28;20025;-89
2024/02/12 05:31:22;;;;;;;679.88;299.13;;;;;;;20.69;39.93;99867.31;5018032;28;20125;-90
2024/02/12 05:33:48;;;;;;;671.90;295.85;;;;;;;20.73;39.92;99875.63;4992962;28;20045;-89
2024/02/12 05:36:18;;;;;;;664.83;293.63;;;;;;;20.74;39.76;99880.72;5026960;28;20033;-88
2024/02/12 05:38:49;;;;;;;673.38;297.13;;;;;;;20.68;39.82;99872.81;5008085;28;20052;-90
2024/02/12 05:41:15;;;;;;;678.65;300.00;;;;;;;20.69;40.07;99882.38;5017402;28;20133;-89
2024/02/12 05:43:41;;;;;;;689.78;304.40;;;;;;;20.75;39.81;99890.28;5022336;28;20471;-90
2024/02/12 05:46:06;;;;;;;681.38;300.92;;;;;;;20.73;40.04;99887.03;5018242;28;20041;-91
2024/02/12 05:48:32;;;;;;;692.92;305.48;;;;;;;20.75;40.05;99890.28;5023055;28;20726;-92
2024/02/12 05:50:59;;;;;;;693.60;305.58;;;;;;;20.73;39.95;99894.16;5023108;28;20347;-91
2024/02/12 05:53:28;;;;;;;688.53;303.08;;;;;;;20.75;39.84;99890.28;5006792;28;20080;-92
2024/02/12 05:55:56;;;;;;;676.15;298.88;;;;;;;20.73;39.95;99887.03;5021091;28;20456;-91
2024/02/12 05:58:24;;;;;;;695.25;305.48;;;;;;;20.66;39.80;99877.50;5029322;28;20033;-91
2024/02/12 06:00:49;;;;;;;696.90;305.88;;;;;;;20.71;40.28;99888.25;5008896;28;20041;-92
2024/02/12 06:03:15;;;;;;;702.13;308.42;;;;;;;20.60;40.10;99876.47;5019411;28;20080;-90
2024/02/12 06:05:41;;;;;;;700.90;308.45;;;;;;;20.72;39.97;99905.75;5006217;28;20049;-90
2024/02/12 06:08:07;;;;;;;698.45;307.50;;;;;;;20.69;40.05;99898.25;5023357;28;20062;-91
2024/02/12 06:10:33;;;;;;;697.67;307.20;;;;;;;20.72;40.18;99906.56;5025898;28;20112;-92
2024/02/12 06:12:59;;;;;;;690.92;305.13;;;;;;;20.67;40.08;99897.63;5023012;28;20033;-90
2024/02/12 06:15:24;;;;;;;691.80;304.90;;;;;;;20.68;40.09;99905.38;5007987;28;20122;-90
2024/02/12 06:17:50;;;;;;;688.03;303.50;;;;;;;20.66;39.89;99904.75;5007725;28;20057;-89
2024/02/12 06:20:15;;;;;;;693.40;305.70;;;;;;;20.72;39.96;99917.16;5005816;28;20065;-90
2024/02/12 06:22:42;;;;;;;692.60;305.38;;;;;;;20.67;40.23;99910.88;5007025;28;20045;-90
2024/02/12 06:25:09;;;;;;;685.15;302.45;;;;;;;20.58;39.96;99893.56;5022496;28;20053;-89
2024/02/12 06:27:35;;;;;;;675.28;298.80;;;;;;;20.71;40.15;99918.16;5020312;28;20041;-90
2024/02/12 06:30:01;;;;;;;672.95;298.05;;;;;;;20.71;40.06;99923.47;5005959;28;20045;-88
2024/02/12 06:32:26;;;;;;;674.65;298.48;;;;;;;20.69;40.25;99925.50;4997571;28;20064;-88
2024/02/12 06:34:52;;;;;;;672.70;298.33;;;;;;;20.69;40.14;99927.34;5020057;28;20434;-88
2024/02/12 06:37:17;;;;;;;673.65;298.70;;;;;;;20.67;40.06;99932.03;5020684;28;20038;-87
2024/02/12 06:39:43;;;;;;;671.70;297.92;;;;;;;20.69;40.10;99936.09;5003822;28;20041;-88
2024/02/12 06:42:09;;;;;;;670.65;297.95;;;;;;;20.64;40.28;99943.81;5019074;28;20042;-87
2024/02/12 06:44:35;;;;;;;687.53;304.25;;;;;;;20.70;40.24;99944.84;5022050;28;20462;-87
2024/02/12 06:47:00;;;;;;;684.65;302.75;;;;;;;20.58;40.08;99936.69;5012827;28;20049;-87
2024/02/12 06:49:26;;;;;;;682.55;302.05;;;;;;;20.68;39.98;99952.97;5025290;28;20045;-87
2024/02/12 06:51:52;;;;;;;706.17;311.45;;;;;;;20.67;40.31;99964.59;5018423;28;20046;-88
2024/02/12 06:54:20;;;;;;;712.88;313.20;;;;;;;20.69;40.06;99961.72;5023125;28;20034;-87
2024/02/12 06:56:45;;;;;;;723.35;317.83;;;;;;;20.67;40.18;99967.22;5022209;28;20118;-88
2024/02/12 06:59:11;;;;;;;721.03;316.80;;;;;;;20.62;40.17;99963.56;5008012;28;20048;-87
2024/02/12 07:01:37;;;;;;;708.20;311.60;;;;;;;20.66;40.17;99973.53;5017319;28;20056;-89
2024/02/12 07:04:06;;;;;;;715.75;315.02;;;;;;;20.60;40.13;99960.31;5020255;28;20128;-91
2024/02/12 07:06:32;;;;;;;722.17;318.15;;;;;;;20.61;39.88;99949.50;5009808;28;20049;-91
2024/02/12 07:08:58;;;;;;;720.90;318.48;;;;;;;21.04;39.59;99988.72;5018625;28;20048;-90
2024/02/12 07:11:27;;;;;;;719.53;317.83;;;;;;;21.39;38.75;100002.50;5022725;28;20041;-90
2024/02/12 07:13:52;;;;;;;716.83;315.95;;;;;;;21.71;38.29;99998.06;5021786;28;20047;-89
2024/02/12 07:16:19;;;;;;;720.20;318.40;;;;;;;21.80;38.25;100006.59;5019883;28;20041;-90
2024/02/12 07:18:45;;;;;;;723.47;321.63;;;;;;;21.73;38.37;100008.47;5023349;28;20545;-91
2024/02/12 07:21:11;;;;;;;718.17;322.20;;;;;;;21.50;38.73;99996.53;4990124;28;20045;-89
2024/02/12 07:23:37;;;;;;;718.00;320.85;;;;;;;21.57;38.88;100020.38;5020952;28;20813;-89
2024/02/12 07:26:04;;;;;;;712.00;319.95;;;;;;;21.51;39.02;100026.47;5020735;28;20097;-85
2024/02/12 07:28:30;;;;;;;698.97;313.98;;;;;;;21.48;39.13;100027.72;5016387;28;20049;-84
2024/02/12 07:30:56;;;;;;;698.83;314.23;;;;;;;21.43;39.05;100030.19;5014357;28;20037;-89
2024/02/12 07:33:22;;;;;;;698.65;312.98;;;;;;;21.43;39.17;100030.19;5030124;28;20037;-87
2024/02/12 07:35:47;;;;;;;697.83;312.48;;;;;;;21.37;39.43;100033.69;5018218;28;20524;-86
2024/02/12 07:38:13;;;;;;;700.85;314.17;;;;;;;21.31;39.51;100037.16;5002093;28;20038;-84
2024/02/12 07:40:38;;;;;;;700.90;313.33;;;;;;;21.20;40.82;100045.72;5017011;28;20037;-79
2024/02/12 07:43:05;;;;;;;707.03;314.27;;;;;;;21.21;40.81;100048.16;5022877;28;20041;-79
2024/02/12 07:45:34;;;;;;;700.50;311.92;;;;;;;21.10;41.02;100035.53;5021112;28;20041;-78
2024/02/12 07:48:00;;;;;;;700.55;313.63;;;;;;;21.16;40.97;100050.59;5017495;28;20097;-79
2024/02/12 07:50:26;;;;;;;704.13;312.85;;;;;;;21.10;41.09;100052.25;5022309;28;20087;-79
2024/02/12 07:52:51;;;;;;;699.78;311.45;;;;;;;21.10;41.16;100049.59;5014825;28;20044;-79
2024/02/12 07:55:20;;;;;;;702.83;309.58;;;;;;;21.03;41.17;100053.28;5021276;28;20037;-79
2024/02/12 07:57:48;;;;;;;704.20;310.02;;;;;;;21.00;41.30;100051.84;5014957;28;20152;-79
2024/02/12 08:00:15;;;;;;;701.42;308.88;;;;;;;20.99;41.33;100055.50;5024844;28;20044;-79
2024/02/12 08:02:44;;;;;;;697.20;306.65;;;;;;;21.03;41.02;100067.31;5017401;28;20041;-79
2024/02/12 08:05:14;;;;;;;688.45;303.17;;;;;;;21.01;41.29;100068.56;5020860;28;20472;-79
2024/02/12 08:07:40;;;;;;;698.00;307.02;;;;;;;20.97;41.26;100075.25;5025958;28;20083;-79
2024/02/12 08:10:07;;;;;;;702.40;308.63;;;;;;;20.92;41.28;100062.66;5018149;28;20187;-79
2024/02/12 08:12:34;;;;;;;707.83;311.73;;;;;;;20.97;41.49;100081.38;5024420;28;20120;-79
2024/02/12 08:15:00;;;;;;;714.75;314.27;;;;;;;20.90;41.31;100069.97;5022910;28;20073;-79
2024/02/12 08:17:25;;;;;;;714.17;314.67;;;;;;;20.96;41.47;100084.22;5013163;28;20755;-79
2024/02/12 08:19:52;;;;;;;716.25;314.10;;;;;;;20.86;41.33;100074.06;5022540;28;20111;-79
2024/02/12 08:22:17;;;;;;;708.80;312.05;;;;;;;20.86;41.55;100074.06;5004775;28;20063;-81
2024/02/12 08:24:43;;;;;;;708.10;312.23;;;;;;;20.94;41.13;100086.25;5027432;28;20573;-83
2024/02/12 08:27:09;;;;;;;708.40;312.30;;;;;;;20.86;41.35;100073.25;5025081;28;20101;-83
2024/02/12 08:29:35;;;;;;;720.65;316.58;;;;;;;20.96;41.26;100100.91;5021416;28;20492;-83
2024/02/12 08:32:01;;;;;;;719.42;316.65;;;;;;;21.07;40.99;100094.19;5016287;28;20045;-83
2024/02/12 08:34:28;;;;;;;728.17;319.90;;;;;;;21.11;41.13;100084.81;5009739;28;20849;-85
2024/02/12 08:36:54;;;;;;;734.67;321.60;;;;;;;21.37;40.52;100095.41;5018896;28;20048;-83
2024/02/12 08:39:21;;;;;;;729.65;321.35;;;;;;;21.55;40.72;100086.81;5015270;28;20026;-91
2024/02/12 08:41:47;;;;;;;649.55;286.33;;;;;;;21.92;40.04;100108.28;5013953;28;20052;-85
2024/02/12 08:44:13;;;;;;;534.10;237.57;;;;;;;21.95;39.43;100108.66;5017808;28;20041;-87
2024/02/12 08:46:39;;;;;;;557.78;247.52;;;;;;;21.94;39.39;100109.69;5019316;28;20051;-87
2024/02/12 08:49:05;;;;;;;583.10;259.00;;;;;;;21.85;39.70;100118.88;5019903;28;20085;-86
2024/02/12 08:51:31;;;;;;;570.72;254.15;;;;;;;21.76;40.07;100122.81;5021645;28;20045;-88
2024/02/12 08:53:57;;;;;;;576.80;256.77;;;;;;;21.70;39.64;100121.78;5018473;28;20056;-92
2024/02/12 08:56:22;;;;;;;567.20;253.40;;;;;;;21.65;39.90;100107.53;5023309;28;20137;-90
2024/02/12 08:58:48;;;;;;;576.97;256.95;;;;;;;21.56;39.93;100114.09;5021799;28;20045;-87
2024/02/12 09:01:17;;;;;;;578.22;258.08;;;;;;;21.54;40.31;100126.72;5020473;28;20061;-90
2024/02/12 09:03:44;;;;;;;583.33;260.63;;;;;;;21.56;40.15;100130.00;5024396;28;20115;-91
2024/02/12 09:06:13;;;;;;;589.95;262.38;;;;;;;21.47;40.36;100132.03;5022124;28;20055;-91
2024/02/12 09:08:43;;;;;;;589.22;263.73;;;;;;;21.46;40.50;100138.38;5022802;28;20729;-89
2024/02/12 09:11:11;;;;;;;605.65;272.42;;;;;;;21.39;40.14;100127.78;5021132;28;20065;-94
2024/02/12 09:13:39;;;;;;;603.80;270.63;;;;;;;21.42;40.39;100137.97;5016021;28;20302;-87
2024/02/12 09:16:08;;;;;;;608.97;273.58;;;;;;;21.36;40.17;100127.38;5023280;28;20114;-87
2024/02/12 09:18:39;;;;;;;604.60;271.08;;;;;;;21.46;39.85;100137.56;5019271;28;20079;-86
2024/02/12 09:21:05;;;;;;;603.85;270.70;;;;;;;21.46;39.84;100138.38;5019786;28;20046;-86
2024/02/12 09:23:32;;;;;;;604.58;270.48;;;;;;;21.35;40.03;100120.44;5021156;28;20037;-85
2024/02/12 09:25:58;;;;;;;611.08;273.23;;;;;;;21.48;39.79;100157.50;5016372;28;20037;-86
2024/02/12 09:28:26;;;;;;;617.42;275.80;;;;;;;21.42;39.95;100145.09;5022136;28;20042;-86
2024/02/12 09:30:54;;;;;;;621.58;277.85;;;;;;;21.47;40.21;100155.06;5019607;28;20049;-89
2024/02/12 09:33:19;;;;;;;622.17;277.33;;;;;;;21.47;40.00;100152.44;5024576;28;20034;-85
2024/02/12 09:35:46;;;;;;;628.90;281.50;;;;;;;21.35;39.88;100147.75;5018798;28;20037;-89
2024/02/12 09:38:12;;;;;;;621.88;277.27;;;;;;;21.46;40.01;100164.84;5022655;28;20476;-86
2024/02/12 09:40:41;;;;;;;621.67;276.38;;;;;;;21.42;40.10;100171.59;5016493;28;20037;-88
2024/02/12 09:43:07;;;;;;;600.88;265.83;;;;;;;21.40;40.03;100170.97;5025346;28;20033;-85
2024/02/12 09:45:35;;;;;;;609.75;270.58;;;;;;;21.36;40.18;100175.88;5016773;28;20037;-86
2024/02/12 09:48:02;;;;;;;612.60;271.27;;;;;;;21.38;40.25;100180.97;5019790;28;20038;-82
2024/02/12 09:50:29;;;;;;;613.47;271.05;;;;;;;21.36;40.06;100188.28;5020023;28;20037;-90
2024/02/12 09:52:58;;;;;;;609.53;271.00;;;;;;;21.37;40.19;100193.41;5010645;28;20046;-87
2024/02/12 09:55:25;;;;;;;610.78;270.98;;;;;;;21.30;40.23;100176.69;5012446;28;20049;-89
2024/02/12 09:57:51;;;;;;;610.15;270.52;;;;;;;21.37;40.20;100197.88;5019856;28;20037;-89
2024/02/12 10:00:22;;;;;;;615.03;271.98;;;;;;;21.25;40.21;100188.91;5020861;28;20088;-88
2024/02/12 10:02:51;;;;;;;621.47;275.30;;;;;;;21.34;40.14;100204.38;5021910;28;20042;-89
2024/02/12 10:05:23;;;;;;;616.30;272.10;;;;;;;21.34;40.06;100212.31;5024402;28;20064;-88
2024/02/12 10:07:50;;;;;;;621.55;274.92;;;;;;;21.35;40.03;100218.44;5020178;28;20063;-90
2024/02/12 10:10:17;;;;;;;627.72;277.65;;;;;;;21.33;39.99;100223.94;5024404;28;20466;-87
2024/02/12 10:12:49;;;;;;;633.15;279.83;;;;;;;21.33;40.06;100231.88;5017790;28;20371;-88
2024/02/12 10:15:16;;;;;;;624.00;275.35;;;;;;;21.29;39.86;100237.81;5018719;28;20049;-88
2024/02/12 10:17:42;;;;;;;632.38;279.27;;;;;;;21.31;39.80;100241.06;5019110;28;20485;-89
2024/02/12 10:20:09;;;;;;;634.75;280.23;;;;;;;21.29;40.13;100243.09;5021267;28;20044;-88
2024/02/12 10:22:44;;;;;;;639.13;284.95;;;;;;;21.22;39.98;100234.31;5019667;28;20075;-90
2024/02/12 10:25:11;;;;;;;634.65;283.48;;;;;;;21.29;39.83;100256.34;5019283;28;20037;-83
2024/02/12 10:27:36;;;;;;;634.63;283.63;;;;;;;21.17;39.89;100239.38;5016759;28;20037;-82
2024/02/12 10:30:06;;;;;;;631.45;282.20;;;;;;;21.27;40.02;100251.25;5023548;28;20045;-87
2024/02/12 10:32:34;;;;;;;625.17;278.77;;;;;;;21.25;39.92;100252.47;5020525;28;20636;-86
2024/02/12 10:35:06;;;;;;;627.67;280.17;;;;;;;21.27;40.14;100263.66;5024494;28;20025;-85
2024/02/12 10:37:34;;;;;;;634.10;282.35;;;;;;;21.29;39.79;100264.28;5033974;28;20054;-89
2024/02/12 10:40:04;;;;;;;632.50;281.48;;;;;;;21.18;39.80;100254.25;5020971;28;20029;-89
2024/02/12 10:42:38;;;;;;;640.47;284.25;;;;;;;21.29;39.73;100273.03;5021647;28;20125;-88
2024/02/12 10:45:06;;;;;;;634.17;282.35;;;;;;;21.30;39.87;100268.56;5017667;28;20051;-88
2024/02/12 10:47:36;;;;;;;638.30;283.58;;;;;;;21.33;39.91;100279.56;5018820;28;20136;-89
2024/02/12 10:50:03;;;;;;;633.50;279.15;;;;;;;21.34;39.63;100280.38;5020492;28;20037;-88
2024/02/12 10:52:30;;;;;;;645.70;283.90;;;;;;;21.30;39.73;100273.84;5023408;28;20033;-87
2024/02/12 10:54:56;;;;;;;644.25;283.83;;;;;;;21.34;39.67;100285.66;5016216;28;20052;-89
2024/02/12 10:57:23;;;;;;;644.78;284.65;;;;;;;21.36;39.93;100291.56;5020227;28;20037;-86
2024/02/12 10:59:59;;;;;;;646.05;285.23;;;;;;;21.38;39.67;100297.50;5021152;28;20760;-86
2024/02/12 11:02:25;;;;;;;655.13;289.90;;;;;;;21.39;39.48;100297.31;5018258;28;20053;-85
2024/02/12 11:05:01;;;;;;;661.15;292.10;;;;;;;21.37;39.74;100295.88;5021028;28;20037;-85
2024/02/12 11:07:28;;;;;;;660.72;292.95;;;;;;;21.38;39.71;100294.88;5017623;28;20021;-85
2024/02/12 11:10:21;;;;;;;652.20;291.10;;;;;;;21.37;39.76;100296.69;5013120;28;20045;-85
2024/02/12 11:12:48;;;;;;;654.92;291.40;;;;;;;21.38;39.52;100297.50;5021943;28;20825;-86
2024/02/12 11:15:47;;;;;;;643.47;287.00;;;;;;;21.41;39.82;100297.09;5018045;28;20542;-86